sensor_id;sensor_type;location;lat;lon;timestamp;pressure;altitude;pressure_sealevel;temperature;humidity
21357;BME280;10836;53.068;18.234;2022-11-20T00:01:21;100669.34;;;-2.24;100.00
21357;BME280;10836;53.068;18.234;2022-11-20T00:03:48;100671.88;;;-2.37;100.00
21357;BME280;10836;53.068;18.234;2022-11-20T00:06:17;100664.63;;;-2.43;100.00
21357;BME280;10836;53.068;18.234;2022-11-20T00:08:45;100663.22;;;-2.39;100.00
21357;BME280;10836;53.068;18.234;2022-11-20T00:11:15;100659.66;;;-2.46;100.00
21357;BME280;10836;53.068;18.234;2022-11-20T00:13:44;100663.22;;;-2.39;100.00
21357;BME280;10836;53.068;18.234;2022-11-20T00:16:13;100665.00;;;-2.46;100.00
21357;BME280;10836;53.068;18.234;2022-11-20T00:18:41;100667.94;;;-2.41;100.00
21357;BME280;10836;53.068;18.234;2022-11-20T00:21:15;100665.25;;;-2.41;100.00
21357;BME280;10836;53.068;18.234;2022-11-20T00:23:42;100682.69;;;-2.45;100.00
21357;BME280;10836;53.068;18.234;2022-11-20T00:26:12;100671.25;;;-2.39;100.00
21357;BME280;10836;53.068;18.234;2022-11-20T00:28:40;100679.53;;;-2.34;100.00
21357;BME280;10836;53.068;18.234;2022-11-20T00:31:13;100693.47;;;-2.39;100.00
21357;BME280;10836;53.068;18.234;2022-11-20T00:33:42;100679.16;;;-2.31;100.00
21357;BME280;10836;53.068;18.234;2022-11-20T00:36:12;100679.16;;;-2.31;100.00
21357;BME280;10836;53.068;18.234;2022-11-20T00:38:39;100672.91;;;-2.38;100.00
21357;BME280;10836;53.068;18.234;2022-11-20T00:41:09;100674.53;;;-2.16;100.00
21357;BME280;10836;53.068;18.234;2022-11-20T00:43:37;100678.38;;;-2.25;100.00
21357;BME280;10836;53.068;18.234;2022-11-20T00:46:13;100670.28;;;-2.31;100.00
21357;BME280;10836;53.068;18.234;2022-11-20T00:48:41;100664.75;;;-2.30;100.00
21357;BME280;10836;53.068;18.234;2022-11-20T00:51:09;100674.56;;;-2.37;100.00
21357;BME280;10836;53.068;18.234;2022-11-20T00:53:37;100673.81;;;-2.31;100.00
21357;BME280;10836;53.068;18.234;2022-11-20T00:56:07;100677.13;;;-2.29;100.00
21357;BME280;10836;53.068;18.234;2022-11-20T00:58:36;100673.50;;;-2.21;100.00
21357;BME280;10836;53.068;18.234;2022-11-20T01:03:45;100674.75;;;-2.17;100.00
21357;BME280;10836;53.068;18.234;2022-11-20T01:08:44;100686.59;;;-2.26;100.00
21357;BME280;10836;53.068;18.234;2022-11-20T01:11:16;100674.50;;;-2.22;100.00
21357;BME280;10836;53.068;18.234;2022-11-20T01:13:45;100671.56;;;-2.06;100.00
21357;BME280;10836;53.068;18.234;2022-11-20T01:16:17;100675.97;;;-2.20;100.00
21357;BME280;10836;53.068;18.234;2022-11-20T01:18:46;100668.19;;;-2.15;100.00
21357;BME280;10836;53.068;18.234;2022-11-20T01:21:20;100671.88;;;-2.16;100.00
21357;BME280;10836;53.068;18.234;2022-11-20T01:23:49;100671.22;;;-1.96;100.00
21357;BME280;10836;53.068;18.234;2022-11-20T01:26:19;100662.94;;;-2.02;100.00
21357;BME280;10836;53.068;18.234;2022-11-20T01:28:47;100660.91;;;-1.99;100.00
21357;BME280;10836;53.068;18.234;2022-11-20T01:33:45;100661.16;;;-2.16;100.00
21357;BME280;10836;53.068;18.234;2022-11-20T01:36:14;100673.94;;;-2.18;100.00
21357;BME280;10836;53.068;18.234;2022-11-20T01:38:42;100666.53;;;-2.16;100.00
21357;BME280;10836;53.068;18.234;2022-11-20T01:41:11;100666.28;;;-2.21;100.00
21357;BME280;10836;53.068;18.234;2022-11-20T01:43:59;100669.34;;;-2.24;100.00
21357;BME280;10836;53.068;18.234;2022-11-20T01:46:27;100667.06;;;-2.27;100.00
21357;BME280;10836;53.068;18.234;2022-11-20T01:51:53;100668.81;;;-2.34;100.00
21357;BME280;10836;53.068;18.234;2022-11-20T01:54:32;100665.59;;;-2.29;100.00
21357;BME280;10836;53.068;18.234;2022-11-20T01:57:03;100658.78;;;-2.32;100.00
21357;BME280;10836;53.068;18.234;2022-11-20T01:59:33;100656.63;;;-2.22;100.00
21357;BME280;10836;53.068;18.234;2022-11-20T02:02:00;100661.91;;;-2.28;100.00
21357;BME280;10836;53.068;18.234;2022-11-20T02:04:28;100664.81;;;-2.23;100.00
21357;BME280;10836;53.068;18.234;2022-11-20T02:07:00;100660.16;;;-2.36;100.00
21357;BME280;10836;53.068;18.234;2022-11-20T02:09:28;100663.66;;;-2.36;100.00
21357;BME280;10836;53.068;18.234;2022-11-20T02:11:55;100661.06;;;-2.29;100.00
21357;BME280;10836;53.068;18.234;2022-11-20T02:14:23;100652.41;;;-2.31;100.00
21357;BME280;10836;53.068;18.234;2022-11-20T02:16:51;100659.41;;;-2.30;100.00
21357;BME280;10836;53.068;18.234;2022-11-20T02:19:28;100656.84;;;-2.38;100.00
21357;BME280;10836;53.068;18.234;2022-11-20T02:22:07;100651.63;;;-2.25;100.00
21357;BME280;10836;53.068;18.234;2022-11-20T02:24:34;100652.91;;;-2.21;100.00
21357;BME280;10836;53.068;18.234;2022-11-20T02:27:09;100643.34;;;-2.30;100.00
21357;BME280;10836;53.068;18.234;2022-11-20T02:29:49;100649.25;;;-2.13;100.00
21357;BME280;10836;53.068;18.234;2022-11-20T02:32:27;100649.69;;;-2.10;100.00
21357;BME280;10836;53.068;18.234;2022-11-20T02:34:55;100639.53;;;-2.21;100.00
21357;BME280;10836;53.068;18.234;2022-11-20T02:37:30;100633.81;;;-2.39;100.00
21357;BME280;10836;53.068;18.234;2022-11-20T02:39:57;100638.78;;;-2.36;100.00
21357;BME280;10836;53.068;18.234;2022-11-20T02:42:24;100635.72;;;-2.33;100.00
21357;BME280;10836;53.068;18.234;2022-11-20T02:44:51;100634.81;;;-2.40;100.00
21357;BME280;10836;53.068;18.234;2022-11-20T02:47:18;100631.13;;;-2.18;100.00
21357;BME280;10836;53.068;18.234;2022-11-20T02:49:45;100634.44;;;-2.37;100.00
21357;BME280;10836;53.068;18.234;2022-11-20T02:52:13;100635.16;;;-2.28;100.00
21357;BME280;10836;53.068;18.234;2022-11-20T02:54:39;100642.84;;;-2.40;100.00
21357;BME280;10836;53.068;18.234;2022-11-20T02:57:07;100642.69;;;-2.53;100.00
21357;BME280;10836;53.068;18.234;2022-11-20T02:59:33;100635.38;;;-2.45;100.00
21357;BME280;10836;53.068;18.234;2022-11-20T03:02:01;100642.91;;;-2.33;100.00
21357;BME280;10836;53.068;18.234;2022-11-20T03:04:28;100649.84;;;-2.39;100.00
21357;BME280;10836;53.068;18.234;2022-11-20T03:06:55;100646.59;;;-2.35;100.00
21357;BME280;10836;53.068;18.234;2022-11-20T03:09:22;100645.72;;;-2.42;100.00
21357;BME280;10836;53.068;18.234;2022-11-20T03:11:49;100645.72;;;-2.42;100.00
21357;BME280;10836;53.068;18.234;2022-11-20T03:14:17;100640.28;;;-2.48;100.00
21357;BME280;10836;53.068;18.234;2022-11-20T03:16:44;100642.47;;;-2.37;100.00
21357;BME280;10836;53.068;18.234;2022-11-20T03:19:11;100633.03;;;-2.33;100.00
21357;BME280;10836;53.068;18.234;2022-11-20T03:21:39;100637.56;;;-2.33;100.00
21357;BME280;10836;53.068;18.234;2022-11-20T03:24:06;100628.78;;;-2.27;100.00
21357;BME280;10836;53.068;18.234;2022-11-20T03:26:33;100634.25;;;-2.36;100.00
21357;BME280;10836;53.068;18.234;2022-11-20T03:29:03;100630.88;;;-2.44;100.00
21357;BME280;10836;53.068;18.234;2022-11-20T03:31:36;100628.59;;;-2.26;100.00
21357;BME280;10836;53.068;18.234;2022-11-20T03:34:04;100630.25;;;-2.25;100.00
21357;BME280;10836;53.068;18.234;2022-11-20T03:36:31;100628.47;;;-2.39;100.00
21357;BME280;10836;53.068;18.234;2022-11-20T03:38:58;100633.44;;;-2.36;100.00
21357;BME280;10836;53.068;18.234;2022-11-20T03:41:27;100634.19;;;-2.42;100.00
21357;BME280;10836;53.068;18.234;2022-11-20T03:44:00;100637.13;;;-2.37;100.00
21357;BME280;10836;53.068;18.234;2022-11-20T03:46:28;100630.19;;;-2.31;100.00
21357;BME280;10836;53.068;18.234;2022-11-20T03:48:55;100633.63;;;-2.38;100.00
21357;BME280;10836;53.068;18.234;2022-11-20T03:51:28;100639.53;;;-2.42;100.00
21357;BME280;10836;53.068;18.234;2022-11-20T03:53:58;100633.03;;;-2.33;100.00
21357;BME280;10836;53.068;18.234;2022-11-20T03:56:28;100635.47;;;-2.17;100.00
21357;BME280;10836;53.068;18.234;2022-11-20T03:58:55;100635.47;;;-2.38;100.00
21357;BME280;10836;53.068;18.234;2022-11-20T04:01:28;100640.06;;;-2.32;100.00
21357;BME280;10836;53.068;18.234;2022-11-20T04:03:56;100640.28;;;-2.48;100.00
21357;BME280;10836;53.068;18.234;2022-11-20T04:06:27;100634.81;;;-2.61;100.00
21357;BME280;10836;53.068;18.234;2022-11-20T04:08:55;100628.84;;;-2.42;100.00
21357;BME280;10836;53.068;18.234;2022-11-20T04:11:25;100630.72;;;-2.57;100.00
21357;BME280;10836;53.068;18.234;2022-11-20T04:13:57;100632.00;;;-2.53;100.00
21357;BME280;10836;53.068;18.234;2022-11-20T04:16:26;100639.75;;;-2.58;100.00
21357;BME280;10836;53.068;18.234;2022-11-20T04:18:54;100629.97;;;-2.51;100.00
21357;BME280;10836;53.068;18.234;2022-11-20T04:21:22;100631.56;;;-2.57;100.00
21357;BME280;10836;53.068;18.234;2022-11-20T04:23:50;100626.66;;;-2.53;100.00
21357;BME280;10836;53.068;18.234;2022-11-20T04:26:18;100623.03;;;-2.46;100.00
21357;BME280;10836;53.068;18.234;2022-11-20T04:28:45;100629.47;;;-2.40;100.00
21357;BME280;10836;53.068;18.234;2022-11-20T04:31:18;100622.13;;;-2.53;100.00
21357;BME280;10836;53.068;18.234;2022-11-20T04:33:45;100619.41;;;-2.59;100.00
21357;BME280;10836;53.068;18.234;2022-11-20T04:36:18;100618.13;;;-2.42;100.00
21357;BME280;10836;53.068;18.234;2022-11-20T04:38:45;100617.06;;;-2.48;100.00
21357;BME280;10836;53.068;18.234;2022-11-20T04:41:18;100613.16;;;-2.45;100.00
21357;BME280;10836;53.068;18.234;2022-11-20T04:43:50;100612.78;;;-2.42;100.00
21357;BME280;10836;53.068;18.234;2022-11-20T04:46:18;100614.44;;;-2.41;100.00
21357;BME280;10836;53.068;18.234;2022-11-20T04:48:47;100608.72;;;-2.38;100.00
21357;BME280;10836;53.068;18.234;2022-11-20T04:51:14;100603.75;;;-2.41;100.00
21357;BME280;10836;53.068;18.234;2022-11-20T04:53:42;100605.53;;;-2.48;100.00
21357;BME280;10836;53.068;18.234;2022-11-20T04:56:10;100610.75;;;-2.40;100.00
21357;BME280;10836;53.068;18.234;2022-11-20T04:58:38;100611.13;;;-2.43;100.00
21357;BME280;10836;53.068;18.234;2022-11-20T05:01:09;100600.44;;;-2.43;100.00
21357;BME280;10836;53.068;18.234;2022-11-20T05:03:36;100602.09;;;-2.42;100.00
21357;BME280;10836;53.068;18.234;2022-11-20T05:06:13;100608.84;;;-2.46;100.00
21357;BME280;10836;53.068;18.234;2022-11-20T05:08:41;100600.44;;;-2.43;100.00
21357;BME280;10836;53.068;18.234;2022-11-20T05:11:14;100592.06;;;-2.61;100.00
21357;BME280;10836;53.068;18.234;2022-11-20T05:13:41;100595.75;;;-2.62;100.00
21357;BME280;10836;53.068;18.234;2022-11-20T05:16:15;100601.97;;;-2.55;100.00
21357;BME280;10836;53.068;18.234;2022-11-20T05:18:42;100599.44;;;-2.63;100.00
21357;BME280;10836;53.068;18.234;2022-11-20T05:21:10;100602.84;;;-2.48;100.00
21357;BME280;10836;53.068;18.234;2022-11-20T05:23:39;100597.44;;;-2.55;100.00
21357;BME280;10836;53.068;18.234;2022-11-20T05:26:08;100595.84;;;-2.49;100.00
21357;BME280;10836;53.068;18.234;2022-11-20T05:28:39;100599.16;;;-2.47;100.00
21357;BME280;10836;53.068;18.234;2022-11-20T05:31:09;100592.53;;;-2.51;100.00
21357;BME280;10836;53.068;18.234;2022-11-20T05:33:36;100590.38;;;-2.41;100.00
21357;BME280;10836;53.068;18.234;2022-11-20T05:36:04;100597.88;;;-2.51;100.00
21357;BME280;10836;53.068;18.234;2022-11-20T05:38:31;100598.78;;;-2.44;100.00
21357;BME280;10836;53.068;18.234;2022-11-20T05:41:10;100601.19;;;-2.49;100.00
21357;BME280;10836;53.068;18.234;2022-11-20T05:43:40;100598.41;;;-2.41;100.00
21357;BME280;10836;53.068;18.234;2022-11-20T05:46:09;100603.00;;;-2.35;100.00
21357;BME280;10836;53.068;18.234;2022-11-20T05:48:37;100601.72;;;-2.39;100.00
21357;BME280;10836;53.068;18.234;2022-11-20T05:51:07;100600.00;;;-2.47;100.00
21357;BME280;10836;53.068;18.234;2022-11-20T05:53:34;100602.59;;;-2.53;100.00
21357;BME280;10836;53.068;18.234;2022-11-20T05:56:07;100590.88;;;-2.52;100.00
21357;BME280;10836;53.068;18.234;2022-11-20T05:58:37;100592.53;;;-2.51;100.00
21357;BME280;10836;53.068;18.234;2022-11-20T06:01:09;100598.72;;;-2.51;100.00
21357;BME280;10836;53.068;18.234;2022-11-20T06:03:38;100596.00;;;-2.36;100.00
21357;BME280;10836;53.068;18.234;2022-11-20T06:06:06;100600.00;;;-2.47;100.00
21357;BME280;10836;53.068;18.234;2022-11-20T06:08:33;100606.69;;;-2.36;100.00
21357;BME280;10836;53.068;18.234;2022-11-20T06:11:08;100604.19;;;-2.38;100.00
21357;BME280;10836;53.068;18.234;2022-11-20T06:13:36;100607.06;;;-2.39;100.00
21357;BME280;10836;53.068;18.234;2022-11-20T06:16:09;100611.13;;;-2.43;100.00
21357;BME280;10836;53.068;18.234;2022-11-20T06:18:36;100600.81;;;-2.46;100.00
21357;BME280;10836;53.068;18.234;2022-11-20T06:23:33;100598.41;;;-2.41;100.00
21357;BME280;10836;53.068;18.234;2022-11-20T06:26:06;100595.91;;;-2.43;100.00
21357;BME280;10836;53.068;18.234;2022-11-20T06:28:33;100604.78;;;-2.42;100.00
21357;BME280;10836;53.068;18.234;2022-11-20T06:31:01;100598.41;;;-2.41;100.00
21357;BME280;10836;53.068;18.234;2022-11-20T06:33:28;100603.94;;;-2.43;100.00
21357;BME280;10836;53.068;18.234;2022-11-20T06:35:57;100604.25;;;-2.31;100.00
21357;BME280;10836;53.068;18.234;2022-11-20T06:38:29;100601.72;;;-2.39;100.00
21357;BME280;10836;53.068;18.234;2022-11-20T06:40:56;100592.47;;;-2.37;100.00
21357;BME280;10836;53.068;18.234;2022-11-20T06:43:24;100582.22;;;-2.33;100.00
21357;BME280;10836;53.068;18.234;2022-11-20T06:45:53;100589.88;;;-2.30;100.00
21357;BME280;10836;53.068;18.234;2022-11-20T06:48:21;100593.63;;;-2.24;100.00
21357;BME280;10836;53.068;18.234;2022-11-20T06:50:48;100587.06;;;-2.22;100.00
21357;BME280;10836;53.068;18.234;2022-11-20T06:53:15;100596.13;;;-2.23;100.00
21357;BME280;10836;53.068;18.234;2022-11-20T06:55:46;100595.75;;;-2.13;100.00
21357;BME280;10836;53.068;18.234;2022-11-20T06:58:15;100597.38;;;-2.19;100.00
21357;BME280;10836;53.068;18.234;2022-11-20T07:00:43;100587.50;;;-2.18;100.00
21357;BME280;10836;53.068;18.234;2022-11-20T07:03:11;100597.22;;;-2.11;100.00
21357;BME280;10836;53.068;18.234;2022-11-20T07:05:38;100603.19;;;-2.09;100.00
21357;BME280;10836;53.068;18.234;2022-11-20T07:08:06;100605.31;;;-2.04;100.00
21357;BME280;10836;53.068;18.234;2022-11-20T07:10:34;100601.03;;;-1.98;100.00
21357;BME280;10836;53.068;18.234;2022-11-20T07:13:01;100597.53;;;-1.99;100.00
21357;BME280;10836;53.068;18.234;2022-11-20T07:15:28;100588.81;;;-2.08;100.00
21357;BME280;10836;53.068;18.234;2022-11-20T07:17:58;100583.81;;;-2.17;100.00
21357;BME280;10836;53.068;18.234;2022-11-20T07:20:26;100583.00;;;-2.11;100.00
21357;BME280;10836;53.068;18.234;2022-11-20T07:22:57;100586.38;;;-2.03;100.00
21357;BME280;10836;53.068;18.234;2022-11-20T07:25:28;100591.72;;;-2.03;100.00
21357;BME280;10836;53.068;18.234;2022-11-20T07:27:59;100594.16;;;-2.08;100.00
21357;BME280;10836;53.068;18.234;2022-11-20T07:30:27;100588.28;;;-1.96;100.00
21357;BME280;10836;53.068;18.234;2022-11-20T07:32:55;100590.19;;;-1.90;100.00
21357;BME280;10836;53.068;18.234;2022-11-20T07:35:24;100595.53;;;-1.90;100.00
21357;BME280;10836;53.068;18.234;2022-11-20T07:37:51;100586.44;;;-1.96;100.00
21357;BME280;10836;53.068;18.234;2022-11-20T07:40:19;100585.50;;;-2.10;100.00
21357;BME280;10836;53.068;18.234;2022-11-20T07:42:49;100590.66;;;-1.80;100.00
21357;BME280;10836;53.068;18.234;2022-11-20T07:45:17;100590.66;;;-1.80;100.00
21357;BME280;10836;53.068;18.234;2022-11-20T07:47:45;100581.88;;;-1.74;100.00
21357;BME280;10836;53.068;18.234;2022-11-20T07:50:12;100585.72;;;-1.83;100.00
21357;BME280;10836;53.068;18.234;2022-11-20T07:52:40;100579.97;;;-1.80;100.00
21357;BME280;10836;53.068;18.234;2022-11-20T07:55:08;100576.72;;;-1.69;100.00
21357;BME280;10836;53.068;18.234;2022-11-20T07:57:36;100581.63;;;-1.73;100.00
21357;BME280;10836;53.068;18.234;2022-11-20T08:00:04;100577.53;;;-1.75;100.00
21357;BME280;10836;53.068;18.234;2022-11-20T08:02:38;100578.06;;;-1.52;100.00
21357;BME280;10836;53.068;18.234;2022-11-20T08:05:09;100581.88;;;-1.68;100.00
21357;BME280;10836;53.068;18.234;2022-11-20T08:07:41;100575.31;;;-1.65;100.00
21357;BME280;10836;53.068;18.234;2022-11-20T08:10:11;100575.94;;;-1.63;100.00
21357;BME280;10836;53.068;18.234;2022-11-20T08:12:49;100568.47;;;-1.74;100.00
21357;BME280;10836;53.068;18.234;2022-11-20T08:15:36;100568.53;;;-1.61;100.00
21357;BME280;10836;53.068;18.234;2022-11-20T08:18:06;100574.03;;;-1.69;100.00
21357;BME280;10836;53.068;18.234;2022-11-20T08:20:54;100576.59;;;-1.54;100.00
21357;BME280;10836;53.068;18.234;2022-11-20T08:23:22;100567.66;;;-1.68;100.00
21357;BME280;10836;53.068;18.234;2022-11-20T08:25:50;100579.25;;;-1.61;100.00
21357;BME280;10836;53.068;18.234;2022-11-20T08:28:18;100576.25;;;-1.45;100.00
21357;BME280;10836;53.068;18.234;2022-11-20T08:30:49;100567.19;;;-1.44;100.00
21357;BME280;10836;53.068;18.234;2022-11-20T08:33:17;100569.34;;;-1.60;100.00
21357;BME280;10836;53.068;18.234;2022-11-20T08:35:45;100559.16;;;-1.44;100.00
21357;BME280;10836;53.068;18.234;2022-11-20T08:38:12;100563.03;;;-1.53;100.00
21357;BME280;10836;53.068;18.234;2022-11-20T08:40:39;100566.09;;;-1.56;100.00
21357;BME280;10836;53.068;18.234;2022-11-20T08:43:06;100555.13;;;-1.20;100.00
21357;BME280;10836;53.068;18.234;2022-11-20T08:45:33;100561.09;;;-1.24;100.00
21357;BME280;10836;53.068;18.234;2022-11-20T08:48:02;100560.41;;;-1.40;100.00
21357;BME280;10836;53.068;18.234;2022-11-20T08:50:30;100550.53;;;-1.39;100.00
21357;BME280;10836;53.068;18.234;2022-11-20T08:53:04;100551.38;;;-1.32;100.00
21357;BME280;10836;53.068;18.234;2022-11-20T08:55:31;100549.31;;;-1.37;100.00
21357;BME280;10836;53.068;18.234;2022-11-20T08:58:03;100546.69;;;-1.17;100.00
21357;BME280;10836;53.068;18.234;2022-11-20T09:00:31;100558.47;;;-1.11;100.00
21357;BME280;10836;53.068;18.234;2022-11-20T09:02:59;100553.28;;;-1.19;100.00
21357;BME280;10836;53.068;18.234;2022-11-20T09:05:28;100548.50;;;-1.30;100.00
21357;BME280;10836;53.068;18.234;2022-11-20T09:07:56;100548.91;;;-1.33;100.00
21357;BME280;10836;53.068;18.234;2022-11-20T09:10:24;100540.66;;;-1.39;100.00
21357;BME280;10836;53.068;18.234;2022-11-20T09:12:52;100547.69;;;-1.24;100.00
21357;BME280;10836;53.068;18.234;2022-11-20T09:15:19;100537.31;;;-1.47;100.00
21357;BME280;10836;53.068;18.234;2022-11-20T09:17:53;100537.56;;;-1.29;100.00
21357;BME280;10836;53.068;18.234;2022-11-20T09:20:21;100538.63;;;-1.30;100.00
21357;BME280;10836;53.068;18.234;2022-11-20T09:22:48;100526.75;;;-1.01;100.00
21357;BME280;10836;53.068;18.234;2022-11-20T09:25:15;100530.47;;;-1.02;100.00
21357;BME280;10836;53.068;18.234;2022-11-20T09:27:42;100530.06;;;-0.86;100.00
21357;BME280;10836;53.068;18.234;2022-11-20T09:30:13;100532.56;;;-0.78;100.00
21357;BME280;10836;53.068;18.234;2022-11-20T09:32:42;100524.28;;;-0.96;100.00
21357;BME280;10836;53.068;18.234;2022-11-20T09:35:09;100520.19;;;-0.92;100.00
21357;BME280;10836;53.068;18.234;2022-11-20T09:37:37;100517.28;;;-0.84;100.00
21357;BME280;10836;53.068;18.234;2022-11-20T09:40:05;100517.88;;;-1.02;100.00
21357;BME280;10836;53.068;18.234;2022-11-20T09:42:40;100521.03;;;-0.72;100.00
21357;BME280;10836;53.068;18.234;2022-11-20T09:50:33;100518.13;;;-0.77;100.00
21357;BME280;10836;53.068;18.234;2022-11-20T09:55:39;100521.44;;;-0.75;100.00
21357;BME280;10836;53.068;18.234;2022-11-20T09:58:33;100531.69;;;-1.05;100.00
21357;BME280;10836;53.068;18.234;2022-11-20T10:01:08;100529.97;;;-1.25;100.00
21357;BME280;10836;53.068;18.234;2022-11-20T10:03:50;100523.00;;;-1.13;100.00
21357;BME280;10836;53.068;18.234;2022-11-20T10:06:28;100522.91;;;-1.40;100.00
21357;BME280;10836;53.068;18.234;2022-11-20T10:09:20;100522.13;;;-1.33;100.00
21357;BME280;10836;53.068;18.234;2022-11-20T10:24:55;100508.41;;;-1.04;100.00
21357;BME280;10836;53.068;18.234;2022-11-20T10:27:41;100505.75;;;-0.78;100.00
21357;BME280;10836;53.068;18.234;2022-11-20T10:30:15;100502.50;;;-0.47;100.00
21357;BME280;10836;53.068;18.234;2022-11-20T10:32:50;100497.72;;;-0.31;100.00
21357;BME280;10836;53.068;18.234;2022-11-20T10:35:23;100496.31;;;-0.47;100.00
21357;BME280;10836;53.068;18.234;2022-11-20T10:37:58;100497.09;;;-0.40;100.00
21357;BME280;10836;53.068;18.234;2022-11-20T10:40:35;100487.63;;;-0.62;100.00
21357;BME280;10836;53.068;18.234;2022-11-20T10:43:29;100489.66;;;-0.78;100.00
21357;BME280;10836;53.068;18.234;2022-11-20T10:46:08;100491.53;;;-0.58;100.00
21357;BME280;10836;53.068;18.234;2022-11-20T10:48:38;100491.31;;;-0.70;100.00
21357;BME280;10836;53.068;18.234;2022-11-20T10:51:23;100490.06;;;-0.94;100.00
21357;BME280;10836;53.068;18.234;2022-11-20T11:01:52;100490.50;;;-0.57;100.00
21357;BME280;10836;53.068;18.234;2022-11-20T11:07:04;100485.53;;;-0.74;100.00
21357;BME280;10836;53.068;18.234;2022-11-20T11:09:38;100481.84;;;-0.59;100.00
21357;BME280;10836;53.068;18.234;2022-11-20T11:12:08;100492.56;;;-0.66;100.00
21357;BME280;10836;53.068;18.234;2022-11-20T11:14:48;100489.66;;;-0.78;100.00
21357;BME280;10836;53.068;18.234;2022-11-20T11:22:30;100493.38;;;-0.98;100.00
21357;BME280;10836;53.068;18.234;2022-11-20T11:24:58;100492.94;;;-1.02;100.00
21357;BME280;10836;53.068;18.234;2022-11-20T11:27:26;100483.69;;;-0.93;100.00
21357;BME280;10836;53.068;18.234;2022-11-20T11:30:12;100485.50;;;-1.13;100.00
21357;BME280;10836;53.068;18.234;2022-11-20T11:32:40;100494.97;;;-1.17;100.00
21357;BME280;10836;53.068;18.234;2022-11-20T11:35:21;100487.13;;;-1.12;100.00
21357;BME280;10836;53.068;18.234;2022-11-20T11:37:48;100483.63;;;-1.19;100.00
21357;BME280;10836;53.068;18.234;2022-11-20T11:40:18;100477.84;;;-1.16;100.00
21357;BME280;10836;53.068;18.234;2022-11-20T11:42:57;100485.50;;;-1.13;100.00
21357;BME280;10836;53.068;18.234;2022-11-20T11:45:26;100486.97;;;-1.04;100.00
21357;BME280;10836;53.068;18.234;2022-11-20T11:47:55;100489.19;;;-1.14;100.00
21357;BME280;10836;53.068;18.234;2022-11-20T11:50:28;100480.50;;;-1.23;100.00
21357;BME280;10836;53.068;18.234;2022-11-20T11:53:14;100478.09;;;-1.05;100.00
21357;BME280;10836;53.068;18.234;2022-11-20T11:59:04;100464.94;;;-0.93;100.00
21357;BME280;10836;53.068;18.234;2022-11-20T12:01:35;100465.34;;;-0.76;100.00
21357;BME280;10836;53.068;18.234;2022-11-20T12:04:31;100467.97;;;-1.09;100.00
21357;BME280;10836;53.068;18.234;2022-11-20T12:07:10;100463.84;;;-1.18;100.00
21357;BME280;10836;53.068;18.234;2022-11-20T12:10:00;100463.66;;;-0.84;100.00
21357;BME280;10836;53.068;18.234;2022-11-20T12:12:40;100458.75;;;-0.74;100.00
21357;BME280;10836;53.068;18.234;2022-11-20T12:15:11;100452.97;;;-0.90;100.00
21357;BME280;10836;53.068;18.234;2022-11-20T12:17:38;100458.75;;;-0.74;100.00
21357;BME280;10836;53.068;18.234;2022-11-20T12:20:13;100455.84;;;-0.72;100.00
21357;BME280;10836;53.068;18.234;2022-11-20T12:25:17;100445.34;;;-0.87;100.00
21357;BME280;10836;53.068;18.234;2022-11-20T12:30:25;100429.44;;;-0.75;100.00
21357;BME280;10836;53.068;18.234;2022-11-20T12:41:21;100423.69;;;-0.52;100.00
21357;BME280;10836;53.068;18.234;2022-11-20T12:58:05;100416.25;;;-0.77;100.00
21357;BME280;10836;53.068;18.234;2022-11-20T13:00:47;100409.03;;;-0.50;100.00
21357;BME280;10836;53.068;18.234;2022-11-20T13:03:31;100408.41;;;-0.52;100.00
21357;BME280;10836;53.068;18.234;2022-11-20T13:08:39;100401.75;;;-0.36;100.00
21357;BME280;10836;53.068;18.234;2022-11-20T13:19:16;100396.03;;;-0.46;100.00
21357;BME280;10836;53.068;18.234;2022-11-20T13:21:48;100397.69;;;-0.52;100.00
21357;BME280;10836;53.068;18.234;2022-11-20T13:26:47;100378.25;;;-0.41;100.00
21357;BME280;10836;53.068;18.234;2022-11-20T13:29:18;100377.47;;;-0.48;100.00
21357;BME280;10836;53.068;18.234;2022-11-20T13:31:47;100382.38;;;-0.38;100.00
21357;BME280;10836;53.068;18.234;2022-11-20T13:37:31;100377.06;;;-0.64;100.00
21357;BME280;10836;53.068;18.234;2022-11-20T13:40:24;100369.22;;;-0.73;100.00
21357;BME280;10836;53.068;18.234;2022-11-20T13:43:35;100372.31;;;-0.76;100.00
21357;BME280;10836;53.068;18.234;2022-11-20T13:45:42;100372.94;;;-0.74;100.00
21357;BME280;10836;53.068;18.234;2022-11-20T13:48:22;100369.69;;;-0.89;100.00
21357;BME280;10836;53.068;18.234;2022-11-20T13:59:49;100366.78;;;-1.01;100.00
21357;BME280;10836;53.068;18.234;2022-11-20T14:02:25;100362.66;;;-1.03;100.00
21357;BME280;10836;53.068;18.234;2022-11-20T14:04:57;100366.78;;;-1.01;100.00
21357;BME280;10836;53.068;18.234;2022-11-20T14:07:39;100364.31;;;-1.02;100.00
21357;BME280;10836;53.068;18.234;2022-11-20T14:10:26;100371.31;;;-1.01;100.00
21357;BME280;10836;53.068;18.234;2022-11-20T14:12:57;100360.59;;;-1.01;100.00
21357;BME280;10836;53.068;18.234;2022-11-20T14:15:30;100358.94;;;-1.09;100.00
21357;BME280;10836;53.068;18.234;2022-11-20T14:17:59;100358.94;;;-1.02;100.00
21357;BME280;10836;53.068;18.234;2022-11-20T14:20:28;100354.41;;;-1.08;100.00
21357;BME280;10836;53.068;18.234;2022-11-20T14:22:57;100359.97;;;-1.10;100.00
21357;BME280;10836;53.068;18.234;2022-11-20T14:25:26;100348.00;;;-1.27;100.00
21357;BME280;10836;53.068;18.234;2022-11-20T14:27:59;100358.50;;;-1.25;100.00
21357;BME280;10836;53.068;18.234;2022-11-20T14:30:43;100363.47;;;-1.22;100.00
21357;BME280;10836;53.068;18.234;2022-11-20T14:33:12;100357.06;;;-1.21;100.00
21357;BME280;10836;53.068;18.234;2022-11-20T14:35:48;100362.22;;;-1.26;100.00